createdAt,value
2023-01-15T00:00:36.893Z,100864.37
2023-01-15T00:03:38.618Z,100866.41
2023-01-15T00:06:42.246Z,100866.06
2023-01-15T00:09:44.438Z,100869.19
2023-01-15T00:12:46.168Z,100867.97
2023-01-15T00:15:48.079Z,100870.53
2023-01-15T00:18:57.197Z,100860.37
2023-01-15T00:21:58.930Z,100863.38
2023-01-15T00:25:19.233Z,100871.97
2023-01-15T00:28:20.950Z,100864.19
2023-01-15T00:31:22.756Z,100861.47
2023-01-15T00:34:25.699Z,100851.22
2023-01-15T00:37:27.619Z,100849.31
2023-01-15T00:40:29.361Z,100853.66
2023-01-15T00:43:31.127Z,100861.16
2023-01-15T00:46:33.141Z,100849.53
2023-01-15T00:49:35.881Z,100852.88
2023-01-15T00:52:37.711Z,100858.47
2023-01-15T00:55:39.719Z,100854.09
2023-01-15T00:58:41.542Z,100845.94
2023-01-15T01:01:43.463Z,100835.66
2023-01-15T01:04:45.412Z,100841.69
2023-01-15T01:07:47.135Z,100836.31
2023-01-15T01:10:48.878Z,100831.72
2023-01-15T01:13:50.660Z,100821.44
2023-01-15T01:16:52.975Z,100818.78
2023-01-15T01:19:54.800Z,100810.72
2023-01-15T01:22:56.572Z,100803.13
2023-01-15T01:25:58.267Z,100793.63
2023-01-15T01:28:59.997Z,100802.78
2023-01-15T01:32:02.042Z,100801.88
2023-01-15T01:35:04.951Z,100798.84
2023-01-15T01:38:06.767Z,100791.94
2023-01-15T01:41:08.561Z,100795.06
2023-01-15T01:44:32.113Z,100792.59
2023-01-15T01:47:34.798Z,100792.72
2023-01-15T01:50:39.583Z,100795.28
2023-01-15T01:53:41.669Z,100790.13
2023-01-15T01:56:44.001Z,100788.00
2023-01-15T01:59:46.323Z,100791.12
2023-01-15T02:02:49.712Z,100780.41
2023-01-15T02:05:56.929Z,100774.38
2023-01-15T02:08:58.694Z,100779.97
2023-01-15T02:12:14.660Z,100776.06
2023-01-15T02:15:26.438Z,100774.38
2023-01-15T02:18:40.671Z,100774.47
2023-01-15T02:21:56.693Z,100770.34
2023-01-15T02:25:13.726Z,100768.00
2023-01-15T02:28:32.179Z,100763.88
2023-01-15T02:31:37.725Z,100770.34
2023-01-15T02:34:48.423Z,100769.66
2023-01-15T02:37:54.267Z,100758.84
2023-01-15T02:40:59.730Z,100761.41
2023-01-15T02:44:04.703Z,100751.87
2023-01-15T02:47:08.483Z,100747.53
2023-01-15T02:50:14.297Z,100743.75
2023-01-15T02:53:25.201Z,100744.75
2023-01-15T02:56:30.537Z,100728.44
2023-01-15T02:59:39.797Z,100729.53
2023-01-15T03:02:50.811Z,100728.75
2023-01-15T03:05:56.821Z,100719.91
2023-01-15T03:08:59.400Z,100716.81
2023-01-15T03:12:15.387Z,100717.03
2023-01-15T03:15:40.618Z,100695.81
2023-01-15T03:18:55.653Z,100692.56
2023-01-15T03:21:59.705Z,100690.66
2023-01-15T03:25:06.772Z,100694.13
2023-01-15T03:28:12.077Z,100679.47
2023-01-15T03:31:14.896Z,100679.69
2023-01-15T03:34:17.814Z,100672.09
2023-01-15T03:37:21.995Z,100677.34
2023-01-15T03:40:23.814Z,100671.56
2023-01-15T03:43:50.846Z,100678.25
2023-01-15T03:47:12.062Z,100676.34
2023-01-15T03:50:55.493Z,100662.97
2023-01-15T03:54:07.782Z,100666.97
2023-01-15T03:57:22.158Z,100667.31
2023-01-15T04:00:42.086Z,100661.59
2023-01-15T04:03:45.547Z,100661.94
2023-01-15T04:06:47.640Z,100657.34
2023-01-15T04:09:49.554Z,100659.03
2023-01-15T04:12:51.281Z,100671.75
2023-01-15T04:15:53.204Z,100666.28
2023-01-15T04:18:56.868Z,100664.97
2023-01-15T04:21:58.650Z,100664.06
2023-01-15T04:25:00.460Z,100665.06
2023-01-15T04:28:03.461Z,100661.38
2023-01-15T04:31:05.480Z,100653.56
2023-01-15T04:34:07.231Z,100655.13
2023-01-15T04:37:08.990Z,100665.34
2023-01-15T04:40:31.028Z,100662.91
2023-01-15T04:43:51.080Z,100666.25
2023-01-15T04:46:53.941Z,100666.56
2023-01-15T04:49:55.654Z,100655.88
2023-01-15T04:52:57.404Z,100660.66
2023-01-15T04:56:04.652Z,100659.44
2023-01-15T04:59:06.837Z,100667.91
2023-01-15T05:02:08.799Z,100664.69
2023-01-15T05:05:10.659Z,100656.34
2023-01-15T05:08:12.388Z,100651.84
2023-01-15T05:11:14.077Z,100647.19
2023-01-15T05:14:15.988Z,100649.06
2023-01-15T05:17:17.855Z,100646.38
2023-01-15T05:20:19.540Z,100637.22
2023-01-15T05:23:21.357Z,100627.19
2023-01-15T05:26:24.331Z,100637.81
2023-01-15T05:29:26.096Z,100634.13
2023-01-15T05:32:27.862Z,100635.91
2023-01-15T05:35:29.609Z,100630.88
2023-01-15T05:38:31.345Z,100622.28
2023-01-15T05:41:51.735Z,100625.50
2023-01-15T05:44:53.548Z,100624.75
2023-01-15T05:47:55.268Z,100626.97
2023-01-15T05:50:56.957Z,100621.28
2023-01-15T05:53:58.765Z,100616.56
2023-01-15T05:57:01.612Z,100619.13
2023-01-15T06:00:05.360Z,100619.78
2023-01-15T06:03:07.081Z,100612.53
2023-01-15T06:06:17.874Z,100600.59
2023-01-15T06:09:20.243Z,100599.09
2023-01-15T06:12:21.929Z,100598.44
2023-01-15T06:15:23.679Z,100594.62
2023-01-15T06:18:25.561Z,100597.75
2023-01-15T06:21:27.388Z,100586.41
2023-01-15T06:24:29.107Z,100586.94
2023-01-15T06:27:30.827Z,100587.38
2023-01-15T06:30:33.368Z,100577.97
2023-01-15T06:33:35.195Z,100582.50
2023-01-15T06:36:37.202Z,100581.53
2023-01-15T06:39:38.949Z,100582.63
2023-01-15T06:42:59.347Z,100575.25
2023-01-15T06:46:19.701Z,100586.50
2023-01-15T06:49:21.471Z,100577.19
2023-01-15T06:52:25.265Z,100579.19
2023-01-15T06:55:26.922Z,100578.44
2023-01-15T06:58:28.647Z,100574.59
2023-01-15T07:01:31.433Z,100571.31
2023-01-15T07:04:33.327Z,100564.41
2023-01-15T07:07:35.100Z,100559.47
2023-01-15T07:10:36.796Z,100561.22
2023-01-15T07:13:38.544Z,100553.62
2023-01-15T07:16:40.300Z,100546.00
2023-01-15T07:19:42.091Z,100552.16
2023-01-15T07:22:43.800Z,100552.22
2023-01-15T07:25:45.601Z,100551.25
2023-01-15T07:28:47.393Z,100546.63
2023-01-15T07:31:49.838Z,100547.78
2023-01-15T07:34:51.608Z,100537.31
2023-01-15T07:37:53.305Z,100536.50
2023-01-15T07:41:17.908Z,100531.50
2023-01-15T07:44:38.158Z,100522.94
2023-01-15T07:47:58.544Z,100525.28
2023-01-15T07:51:00.324Z,100508.16
2023-01-15T07:54:02.049Z,100511.66
2023-01-15T07:57:04.256Z,100516.19
2023-01-15T08:00:10.061Z,100512.34
2023-01-15T08:03:11.781Z,100512.56
2023-01-15T08:06:13.615Z,100510.09
2023-01-15T08:09:15.437Z,100507.19
2023-01-15T08:12:36.019Z,100500.94
2023-01-15T08:15:43.854Z,100502.81
2023-01-15T08:18:46.758Z,100495.22
2023-01-15T08:21:48.501Z,100502.84
2023-01-15T08:24:50.513Z,100508.56
2023-01-15T08:27:52.643Z,100502.72
2023-01-15T08:30:54.453Z,100507.56
2023-01-15T08:33:56.196Z,100500.41
2023-01-15T08:37:00.297Z,100495.97
2023-01-15T08:40:02.166Z,100498.31
2023-01-15T08:43:04.032Z,100495.09
2023-01-15T08:46:06.205Z,100495.59
2023-01-15T08:49:10.486Z,100489.28
2023-01-15T08:52:15.251Z,100495.50
2023-01-15T08:55:17.111Z,100484.66
2023-01-15T08:58:18.870Z,100483.94
2023-01-15T09:01:20.762Z,100492.41
2023-01-15T09:04:23.099Z,100495.59
2023-01-15T09:07:24.970Z,100485.81
2023-01-15T09:10:27.715Z,100492.28
2023-01-15T09:13:30.497Z,100500.38
2023-01-15T09:16:32.868Z,100495.09
2023-01-15T09:19:34.567Z,100495.28
2023-01-15T09:22:36.408Z,100491.09
2023-01-15T09:25:38.096Z,100489.88
2023-01-15T09:28:39.785Z,100490.94
2023-01-15T09:31:41.546Z,100487.25
2023-01-15T09:34:43.311Z,100479.62
2023-01-15T09:37:50.119Z,100477.53
2023-01-15T09:40:59.569Z,100470.94
2023-01-15T09:44:04.111Z,100470.87
2023-01-15T09:47:18.390Z,100460.72
2023-01-15T09:50:38.531Z,100460.72
2023-01-15T09:53:51.033Z,100471.81
2023-01-15T09:56:55.190Z,100459.59
2023-01-15T10:00:04.042Z,100458.97
2023-01-15T10:03:29.077Z,100456.44
2023-01-15T10:06:38.182Z,100439.09
2023-01-15T10:09:41.187Z,100430.03
2023-01-15T10:12:45.285Z,100434.66
2023-01-15T10:15:48.160Z,100427.88
2023-01-15T10:18:50.020Z,100426.84
2023-01-15T10:22:23.945Z,100419.72
2023-01-15T10:25:30.651Z,100413.72
2023-01-15T10:28:55.021Z,100406.44
2023-01-15T10:32:02.844Z,100404.31
2023-01-15T10:35:34.098Z,100399.13
2023-01-15T10:38:55.757Z,100391.03
2023-01-15T10:41:57.419Z,100387.34
2023-01-15T10:45:30.983Z,100375.84
2023-01-15T10:48:43.079Z,100372.03
2023-01-15T10:51:44.807Z,100369.25
2023-01-15T10:54:51.473Z,100350.22
2023-01-15T10:58:11.554Z,100344.94
2023-01-15T11:01:17.166Z,100332.75
2023-01-15T11:04:19.031Z,100325.28
2023-01-15T11:07:26.709Z,100312.50
2023-01-15T11:10:28.814Z,100305.00
2023-01-15T11:13:49.917Z,100291.78
2023-01-15T11:17:10.709Z,100295.56
2023-01-15T11:20:18.511Z,100290.22
2023-01-15T11:23:21.878Z,100294.09
2023-01-15T11:26:25.278Z,100285.34
2023-01-15T11:29:34.435Z,100276.03
2023-01-15T11:32:38.518Z,100263.69
2023-01-15T11:35:50.799Z,100264.19
2023-01-15T11:38:53.206Z,100256.16
2023-01-15T11:42:24.784Z,100255.16
2023-01-15T11:45:45.154Z,100256.88
2023-01-15T11:49:06.888Z,100240.03
2023-01-15T11:52:11.500Z,100246.84
2023-01-15T11:55:22.490Z,100232.53
2023-01-15T11:58:25.074Z,100221.19
2023-01-15T12:01:36.093Z,100214.63
2023-01-15T12:04:56.238Z,100208.59
2023-01-15T12:08:02.770Z,100202.75
2023-01-15T12:11:26.295Z,100199.94
2023-01-15T12:14:39.415Z,100197.34
2023-01-15T12:18:14.547Z,100185.41
2023-01-15T12:21:50.431Z,100180.53
2023-01-15T12:25:03.506Z,100172.97
2023-01-15T12:28:24.527Z,100156.81
2023-01-15T12:31:37.886Z,100140.97
2023-01-15T12:34:48.273Z,100133.03
2023-01-15T12:38:04.735Z,100127.81
2023-01-15T12:41:16.128Z,100119.09
2023-01-15T12:44:55.124Z,100111.50
2023-01-15T12:48:00.301Z,100102.09
2023-01-15T12:51:05.384Z,100110.94
2023-01-15T12:54:15.918Z,100092.88
2023-01-15T12:57:53.531Z,100104.25
2023-01-15T13:01:11.651Z,100106.09
2023-01-15T13:04:18.563Z,100099.69
2023-01-15T13:07:39.159Z,100097.63
2023-01-15T13:10:41.699Z,100093.12
2023-01-15T13:13:58.002Z,100097.06
2023-01-15T13:17:11.279Z,100094.37
2023-01-15T13:20:31.764Z,100094.91
2023-01-15T13:23:51.520Z,100101.16
2023-01-15T13:27:11.030Z,100098.69
2023-01-15T13:30:32.639Z,100107.91
2023-01-15T13:33:43.490Z,100101.53
2023-01-15T13:36:48.669Z,100090.00
2023-01-15T13:39:56.699Z,100093.88
2023-01-15T13:42:59.314Z,100089.25
2023-01-15T13:46:04.148Z,100082.84
2023-01-15T13:49:06.046Z,100090.22
2023-01-15T13:52:21.855Z,100084.84
2023-01-15T13:55:32.001Z,100080.50
2023-01-15T13:58:38.520Z,100080.66
2023-01-15T14:01:40.401Z,100088.25
2023-01-15T14:04:42.288Z,100063.53
2023-01-15T14:07:44.054Z,100059.16
2023-01-15T14:10:48.286Z,100059.41
2023-01-15T14:14:13.125Z,100054.78
2023-01-15T14:17:45.541Z,100058.47
2023-01-15T14:21:15.301Z,100052.34
2023-01-15T14:24:25.992Z,100048.31
2023-01-15T14:28:02.574Z,100039.66
2023-01-15T14:31:13.381Z,100033.06
2023-01-15T14:34:21.205Z,100025.03
2023-01-15T14:37:44.837Z,100021.41
2023-01-15T14:41:03.567Z,100010.66
2023-01-15T14:44:05.851Z,100014.66
2023-01-15T14:47:24.356Z,100006.03
2023-01-15T14:50:33.506Z,100013.50
2023-01-15T14:53:43.310Z,100008.16
2023-01-15T14:56:51.569Z,100016.31
2023-01-15T14:59:58.551Z,100006.56
2023-01-15T15:03:04.598Z,100010.06
2023-01-15T15:06:11.474Z,100009.78
2023-01-15T15:09:15.218Z,99998.84
2023-01-15T15:12:44.233Z,100002.25
2023-01-15T15:16:07.521Z,100003.81
2023-01-15T15:19:23.257Z,99996.78
2023-01-15T15:22:29.803Z,100002.69
2023-01-15T15:25:39.374Z,99993.91
2023-01-15T15:28:41.787Z,99991.25
2023-01-15T15:31:53.683Z,99993.75
2023-01-15T15:34:56.466Z,99988.34
2023-01-15T15:38:04.271Z,99977.13
2023-01-15T15:41:11.503Z,99976.34
2023-01-15T15:44:42.966Z,99973.00
2023-01-15T15:48:04.199Z,99974.62
2023-01-15T15:51:29.787Z,99963.78
2023-01-15T15:54:34.091Z,99967.94
2023-01-15T15:57:36.170Z,99964.44
2023-01-15T16:00:44.997Z,99963.13
2023-01-15T16:03:48.427Z,99960.19
2023-01-15T16:06:50.894Z,99959.16
2023-01-15T16:09:58.267Z,99952.28
2023-01-15T16:13:07.517Z,99945.94
2023-01-15T16:16:11.850Z,99942.56
2023-01-15T16:19:20.533Z,99944.53
2023-01-15T16:22:23.642Z,99940.69
2023-01-15T16:25:38.339Z,99945.03
2023-01-15T16:28:47.383Z,99944.44
2023-01-15T16:31:50.057Z,99932.53
2023-01-15T16:35:04.868Z,99938.75
2023-01-15T16:38:08.849Z,99941.31
2023-01-15T16:41:28.232Z,99938.59
2023-01-15T16:44:52.156Z,99932.81
2023-01-15T16:48:10.125Z,99937.84
2023-01-15T16:51:28.068Z,99936.28
2023-01-15T16:54:31.206Z,99931.59
2023-01-15T16:57:35.261Z,99927.50
2023-01-15T17:00:38.513Z,99930.84
2023-01-15T17:03:42.217Z,99929.72
2023-01-15T17:06:44.972Z,99934.72
2023-01-15T17:09:56.127Z,99929.00
2023-01-15T17:12:59.471Z,99938.09
2023-01-15T17:16:24.180Z,99943.22
2023-01-15T17:19:26.428Z,99936.12
2023-01-15T17:22:32.840Z,99935.62
2023-01-15T17:25:36.527Z,99923.25
2023-01-15T17:28:39.091Z,99921.19
2023-01-15T17:31:44.008Z,99909.41
2023-01-15T17:34:46.703Z,99905.41
2023-01-15T17:37:49.073Z,99904.22
2023-01-15T17:40:55.916Z,99894.84
2023-01-15T17:43:58.455Z,99883.94
2023-01-15T17:47:00.679Z,99888.25
2023-01-15T17:50:18.554Z,99885.00
2023-01-15T17:53:20.918Z,99876.50
2023-01-15T17:56:43.843Z,99871.28
2023-01-15T18:00:05.105Z,99866.13
2023-01-15T18:03:37.214Z,99863.94
2023-01-15T18:06:43.913Z,99882.16
2023-01-15T18:09:48.110Z,99881.22
2023-01-15T18:12:53.466Z,99883.72
2023-01-15T18:15:56.555Z,99878.63
2023-01-15T18:18:59.302Z,99877.47
2023-01-15T18:22:01.676Z,99870.31
2023-01-15T18:25:07.845Z,99871.06
2023-01-15T18:28:10.541Z,99876.38
2023-01-15T18:31:14.994Z,99885.63
2023-01-15T18:34:18.849Z,99887.44
2023-01-15T18:37:21.856Z,99888.34
2023-01-15T18:40:31.967Z,99885.41
2023-01-15T18:43:52.955Z,99893.28
2023-01-15T18:46:57.891Z,99888.88
2023-01-15T18:50:00.041Z,99901.47
2023-01-15T18:53:03.867Z,99904.47
2023-01-15T18:56:07.535Z,99892.72
2023-01-15T18:59:12.525Z,99893.16
2023-01-15T19:02:19.927Z,99875.09
2023-01-15T19:05:22.853Z,99877.25
2023-01-15T19:08:25.386Z,99879.84
2023-01-15T19:11:29.172Z,99875.62
2023-01-15T19:14:53.406Z,99878.69
2023-01-15T19:18:14.539Z,99860.97
2023-01-15T19:21:18.453Z,99868.34
2023-01-15T19:24:21.381Z,99864.25
2023-01-15T19:27:24.094Z,99866.84
2023-01-15T19:30:28.182Z,99864.13
2023-01-15T19:33:32.241Z,99862.19
2023-01-15T19:36:35.990Z,99858.53
2023-01-15T19:39:38.917Z,99866.50
2023-01-15T19:43:01.958Z,99856.47
2023-01-15T19:46:22.703Z,99856.31
2023-01-15T19:49:45.102Z,99857.78
2023-01-15T19:52:53.939Z,99851.34
2023-01-15T19:55:56.793Z,99858.50
2023-01-15T19:58:59.652Z,99850.91
2023-01-15T20:02:04.330Z,99867.09
2023-01-15T20:05:08.359Z,99871.63
2023-01-15T20:08:16.319Z,99878.44
2023-01-15T20:11:20.021Z,99880.72
2023-01-15T20:14:22.800Z,99878.19
2023-01-15T20:17:27.938Z,99867.78
2023-01-15T20:20:30.778Z,99869.63
2023-01-15T20:23:34.191Z,99866.38
2023-01-15T20:26:37.483Z,99871.41
2023-01-15T20:29:43.909Z,99861.63
2023-01-15T20:32:50.776Z,99862.38
2023-01-15T20:35:55.054Z,99856.94
2023-01-15T20:38:57.822Z,99855.72
2023-01-15T20:42:19.858Z,99865.84
2023-01-15T20:45:25.339Z,99864.28
2023-01-15T20:48:46.514Z,99874.53
2023-01-15T20:51:49.148Z,99884.56
2023-01-15T20:54:52.074Z,99885.19
2023-01-15T20:57:55.285Z,99875.94
2023-01-15T21:01:06.943Z,99871.56
2023-01-15T21:04:10.846Z,99873.81
2023-01-15T21:07:13.190Z,99865.84
2023-01-15T21:10:15.501Z,99857.59
2023-01-15T21:13:18.205Z,99859.56
2023-01-15T21:16:20.642Z,99863.19
2023-01-15T21:19:23.550Z,99855.50
2023-01-15T21:22:25.372Z,99857.50
2023-01-15T21:25:27.641Z,99858.31
2023-01-15T21:28:29.960Z,99846.88
2023-01-15T21:31:32.113Z,99846.88
2023-01-15T21:34:33.895Z,99858.63
2023-01-15T21:37:35.699Z,99848.37
2023-01-15T21:40:38.717Z,99839.66
2023-01-15T21:44:00.422Z,99833.53
2023-01-15T21:47:05.294Z,99823.66
2023-01-15T21:50:07.623Z,99829.41
2023-01-15T21:53:09.383Z,99833.06
2023-01-15T21:56:11.095Z,99842.25
2023-01-15T21:59:13.557Z,99836.66
2023-01-15T22:02:19.081Z,99852.66
2023-01-15T22:05:20.892Z,99846.84
2023-01-15T22:08:22.687Z,99838.56
2023-01-15T22:11:24.886Z,99838.25
2023-01-15T22:14:29.463Z,99830.88
2023-01-15T22:17:31.224Z,99832.09
2023-01-15T22:20:33.030Z,99833.19
2023-01-15T22:23:34.806Z,99831.50
2023-01-15T22:26:37.920Z,99839.50
2023-01-15T22:29:41.528Z,99834.97
2023-01-15T22:32:43.326Z,99833.19
2023-01-15T22:35:56.605Z,99837.22
2023-01-15T22:38:59.435Z,99826.13
2023-01-15T22:42:19.936Z,99808.03
2023-01-15T22:45:23.163Z,99802.16
2023-01-15T22:48:24.942Z,99799.72
2023-01-15T22:51:26.625Z,99780.81
2023-01-15T22:54:28.353Z,99785.22
2023-01-15T22:57:31.258Z,99797.91
2023-01-15T23:00:32.990Z,99791.38
2023-01-15T23:03:37.951Z,99783.62
2023-01-15T23:06:39.687Z,99791.09
2023-01-15T23:09:41.409Z,99780.91
2023-01-15T23:12:43.324Z,99794.25
2023-01-15T23:15:45.118Z,99804.56
2023-01-15T23:18:47.727Z,99800.19
2023-01-15T23:21:49.484Z,99800.22
2023-01-15T23:24:51.202Z,99788.66
2023-01-15T23:27:52.908Z,99792.28
2023-01-15T23:30:54.652Z,99790.63
2023-01-15T23:33:57.052Z,99794.25
2023-01-15T23:36:58.791Z,99795.56
2023-01-15T23:40:01.584Z,99800.16
2023-01-15T23:43:23.189Z,99788.47
2023-01-15T23:46:35.504Z,99777.50
2023-01-15T23:49:37.988Z,99782.38
2023-01-15T23:52:39.639Z,99790.91
2023-01-15T23:55:41.291Z,99785.56
2023-01-15T23:58:43.001Z,99787.69
